Aérodrome :
LOGIN :

S'inscrire | Disclaimer

   EN    FR    IT 

 










Légende :    VFR   VFR Marginal   IFR   IFR Intensif   IFR Très Intensif
Visi : 
Plafond : 
>= 8 km
>= 3000ft
5 à 8 km
1000 à 3000 ft
1500m à 5 km
500 à 1000 ft
800 à 1500m
200 à 500 ft
< 800m
< 200 ft
Symboles :   Orages  Brouillard  Fortes neiges  Fortes précipitations  Vent > 20 kt
SIGMETs :   Divers  Orages  Givrage  Turbulence  Onde Orograph.  Cendres Volcan.







- Altitude de l'aérodrome : 1197 ft
- Code IATA : SPM


ETAD - Spangdahlem Ab

DERNIER METAR :
  • 251456Z AUTO 02005KT 9999 BKN030 BKN036 17/11 A3026 RMK AO2 SLP234 T01710114 50000 $

METARs EXPIRÉS :
  • 251356Z AUTO 03007KT 9999 FEW029 BKN035 17/11 A3026 RMK AO2 SLP234 T01720112 PWINO PNO $
  • 251311Z AUTO 01007KT 9999 FEW026 OVC033 17/11 A3026 RMK AO2 SLP234 $
  • 251256Z AUTO 02008KT 9999 BKN027 OVC033 17/11 A3026 RMK AO2 CIG 026 RWY05 SLP234 T01690114 $

TAF TAF ETAD
Valide du 25 à 11h jusqu'au 26 à 17h UTC


251105Z 2511/2617 02009KT 9999 BKN020 OVC040 QNH3022INS
BECMG 2606/2607 02009KT 9999 SCT025 QNH3019INS TX20/2515Z TN09/2603Z
Pas de NOTAMs connus pour ce terrain.



MET'MAP, la Météo Aéronautique d'un coup d'oeil ! - Copyright ORBIFLY Décembre 2007 - Disclaimer

ORBIFLY MET'MAP TEAM :

Programmation & Développement : Alexandra Zaïnal
Conception & Développement : Baudouin d'Aumeries
Co-Programmation & Développement : Marc-Olivier Méhu
Soutien technique & logistique : Manuel Goepfert

Contact : metmap@orbifly.com




SOURCES & CREDITS :

   NOAA